Time;durP1;ratioP1;P1;durP2;ratioP2;P2;SDS_P1;SDS_P2;PMS_P1;PMS_P2;Temp;Humidity;BMP_temperature;BMP_pressure;BME280_temperature;BME280_humidity;BME280_pressure;Samples;Min_cycle;Max_cycle;Signal;HPM_P1;HPM_P2
2021/12/15 00:01:40;;;;;;;22.47;13.73;;;9.30;94.00;;;9.68;66.05;100030.41;4883133;28;124002;-87
2021/12/15 00:04:07;;;;;;;20.80;13.87;;;9.20;93.90;;;9.69;66.14;100048.63;4875536;28;123978;-85
2021/12/15 00:06:35;;;;;;;20.23;12.97;;;9.20;94.00;;;9.68;66.40;100040.63;4892864;28;114318;-86
2021/12/15 00:09:08;;;;;;;20.63;13.60;;;9.20;94.00;;;9.68;66.33;100040.63;4892175;28;114528;-85
2021/12/15 00:11:38;;;;;;;20.73;12.63;;;9.10;94.00;;;9.67;66.46;100027.91;4892441;28;123902;-86
2021/12/15 00:14:10;;;;;;;21.97;12.80;;;9.10;94.00;;;9.67;66.19;100030.69;4891430;28;122770;-84
2021/12/15 00:16:39;;;;;;;21.60;12.40;;;9.10;94.00;;;9.69;66.34;100032.06;4878409;28;112508;-88
2021/12/15 00:19:07;;;;;;;23.50;13.43;;;9.10;94.10;;;9.69;66.49;100025.72;4875449;28;114127;-86
2021/12/15 00:21:35;;;;;;;20.17;12.70;;;9.20;94.10;;;9.71;66.46;100026.28;4875544;28;122786;-84
2021/12/15 00:24:05;;;;;;;21.23;13.37;;;9.20;94.10;;;9.71;66.25;100026.28;4893853;28;123595;-84
2021/12/15 00:26:32;;;;;;;19.93;12.13;;;9.20;94.10;;;9.71;66.25;100024.34;4894878;28;113710;-85
2021/12/15 00:29:02;;;;;;;17.30;11.93;;;9.20;94.10;;;9.70;66.48;100030.97;4892366;28;114303;-85
2021/12/15 00:31:32;;;;;;;19.03;12.63;;;9.20;94.10;;;9.69;66.46;100039.53;4888108;28;123101;-85
2021/12/15 00:34:07;;;;;;;16.90;11.90;;;9.20;94.10;;;9.71;66.11;100040.91;4870986;28;123580;-85
2021/12/15 00:36:37;;;;;;;19.83;11.93;;;9.20;94.10;;;9.70;65.88;100030.97;4878659;28;112251;-85
2021/12/15 00:39:06;;;;;;;18.60;12.37;;;9.20;94.20;;;9.72;66.43;100034.28;4895737;28;113959;-86
2021/12/15 00:41:34;;;;;;;17.57;10.80;;;9.40;94.20;;;9.71;66.29;100038.13;4882617;28;124523;-86
2021/12/15 00:44:03;;;;;;;19.53;11.30;;;9.20;94.10;;;9.72;66.25;100041.72;4891488;28;124307;-86
2021/12/15 00:46:30;;;;;;;12.70;9.70;;;9.20;94.10;;;9.72;66.15;100030.69;4865236;28;114385;-86
2021/12/15 00:48:58;;;;;;;14.03;10.23;;;9.20;94.10;;;9.72;66.37;100031.53;4883905;28;114842;-86
2021/12/15 00:51:26;;;;;;;15.33;10.63;;;9.20;94.10;;;9.72;66.47;100030.69;4873842;28;124025;-87
2021/12/15 00:53:53;;;;;;;15.40;10.30;;;9.20;94.10;;;9.72;66.21;100039.81;4877167;28;124308;-86
2021/12/15 00:56:19;;;;;;;20.20;10.93;;;9.30;94.20;;;9.73;66.19;100046.16;4878096;28;114286;-86
2021/12/15 00:58:46;;;;;;;14.63;10.50;;;9.30;94.20;;;9.74;66.22;100051.38;4862093;28;114328;-86
2021/12/15 01:01:15;;;;;;;15.00;10.33;;;9.20;94.10;;;9.73;66.12;100049.75;4869726;28;123935;-86
2021/12/15 01:03:42;;;;;;;16.53;11.13;;;9.20;94.10;;;9.73;66.04;100049.75;4868267;28;123093;-86
2021/12/15 01:06:13;;;;;;;19.20;11.30;;;9.20;94.10;;;9.71;66.41;100051.13;4868706;28;114881;-87
2021/12/15 01:08:46;;;;;;;18.70;11.40;;;9.20;94.10;;;9.70;66.15;100050.28;4862223;28;115493;-86
2021/12/15 01:11:30;;;;;;;19.60;11.73;;;9.20;94.10;;;9.69;66.00;100043.09;4842601;28;124156;-86
2021/12/15 01:19:54;;;;;;;17.03;10.63;;;9.20;94.10;;;9.65;66.18;100046.72;4857101;28;113867;-85
2021/12/15 01:22:43;;;;;;;19.50;11.10;;;9.10;94.00;;;9.65;66.03;100047.53;4863269;28;123989;-86
2021/12/15 01:25:19;;;;;;;18.13;11.80;;;9.10;94.00;;;9.63;66.24;100055.25;4874366;28;123705;-86
2021/12/15 01:28:06;;;;;;;17.33;11.43;;;9.10;94.00;;;9.66;66.23;100048.34;4874515;28;113294;-86
2021/12/15 01:30:39;;;;;;;19.57;12.23;;;9.10;94.00;;;9.63;66.16;100044.22;4857612;28;113333;-86
2021/12/15 01:33:07;;;;;;;17.83;11.40;;;9.10;94.10;;;9.61;66.39;100049.16;4862473;28;124271;-86
2021/12/15 01:35:38;;;;;;;18.90;12.43;;;9.10;94.10;;;9.62;66.14;100053.59;4842129;28;124310;-86
2021/12/15 01:38:06;;;;;;;20.33;12.70;;;9.10;94.10;;;9.61;66.38;100056.63;4856502;28;114220;-86
2021/12/15 01:40:39;;;;;;;17.30;11.13;;;9.20;94.10;;;9.62;66.34;100061.06;4864890;28;114354;-86
2021/12/15 01:43:24;;;;;;;19.30;12.27;;;9.10;94.10;;;9.64;66.23;100061.59;4864298;28;124081;-86
2021/12/15 01:48:55;;;;;;;17.47;11.30;;;9.20;94.10;;;9.60;66.19;100058.56;4862205;28;114200;-86
2021/12/15 01:51:22;;;;;;;17.17;11.00;;;9.10;94.10;;;9.57;66.18;100061.88;4853525;29;113848;-86
2021/12/15 01:53:50;;;;;;;18.97;11.67;;;9.10;94.10;;;9.59;66.28;100065.19;4855786;28;124148;-86
2021/12/15 01:56:17;;;;;;;18.50;12.13;;;9.10;94.10;;;9.61;66.47;100067.66;4869808;28;123019;-83
2021/12/15 01:58:43;;;;;;;19.30;11.73;;;9.10;94.10;;;9.61;66.34;100057.44;4873685;28;113260;-84
2021/12/15 02:01:10;;;;;;;17.50;10.80;;;9.10;94.10;;;9.63;66.29;100055.25;4862872;28;112751;-86
2021/12/15 02:03:38;;;;;;;16.13;10.80;;;9.20;94.20;;;9.64;66.28;100073.44;4864002;28;123251;-83
2021/12/15 02:06:07;;;;;;;19.77;11.57;;;9.10;94.10;;;9.64;66.48;100067.09;4852968;28;123405;-85
2021/12/15 02:08:34;;;;;;;16.77;10.37;;;9.10;94.10;;;9.62;66.09;100059.13;4856493;28;113967;-86
2021/12/15 02:11:03;;;;;;;17.23;10.80;;;9.10;94.10;;;9.64;66.39;100064.34;4856066;28;114311;-86
2021/12/15 02:13:30;;;;;;;13.93;10.30;;;9.10;94.10;;;9.63;66.26;100055.25;4871773;28;123400;-87
2021/12/15 02:16:15;;;;;;;17.27;10.53;;;9.20;94.20;;;9.67;66.33;100061.88;4870551;28;123881;-87
2021/12/15 02:18:45;;;;;;;17.23;10.73;;;9.10;94.10;;;9.65;66.13;100053.06;4850301;28;113518;-87
2021/12/15 02:21:19;;;;;;;18.70;12.30;;;9.20;94.20;;;9.66;66.06;100043.66;4865981;28;113825;-87
2021/12/15 02:23:53;;;;;;;17.90;11.63;;;9.10;94.10;;;9.65;66.22;100052.22;4851724;28;123442;-85
2021/12/15 02:26:33;;;;;;;17.80;11.07;;;9.10;94.10;;;9.67;66.28;100044.47;4870193;28;123995;-87
2021/12/15 02:29:03;;;;;;;16.50;10.63;;;9.10;94.10;;;9.64;66.29;100048.63;4869942;28;115803;-85
2021/12/15 02:31:52;;;;;;;17.90;11.93;;;9.10;94.10;;;9.64;65.94;100062.41;4873334;28;113964;-84
2021/12/15 02:39:55;;;;;;;16.43;10.53;;;9.10;94.10;;;9.65;66.36;100057.75;4867459;28;114239;-86
2021/12/15 02:42:26;;;;;;;14.50;9.90;;;9.10;94.10;;;9.63;66.33;100058.00;4856689;28;114954;-84
2021/12/15 02:44:55;;;;;;;19.40;11.57;;;9.10;94.10;;;9.62;66.25;100067.41;4872631;28;123623;-87
2021/12/15 02:47:30;;;;;;;20.17;12.33;;;9.10;94.40;;;9.63;66.00;100055.25;4842389;28;123490;-86
2021/12/15 02:50:04;;;;;;;19.47;11.80;;;9.10;94.00;;;9.63;65.94;100049.72;4861235;28;114184;-86
2021/12/15 02:52:50;;;;;;;17.00;11.37;;;9.10;94.10;;;9.63;65.89;100049.72;4876326;28;113017;-86
2021/12/15 02:55:17;;;;;;;16.03;11.13;;;9.10;94.10;;;9.61;66.33;100051.94;4891007;28;124318;-86
2021/12/15 02:57:48;;;;;;;18.10;11.67;;;9.10;94.10;;;9.63;66.08;100046.16;4890784;28;123615;-86
2021/12/15 03:00:35;;;;;;;21.30;11.83;;;9.10;94.10;;;9.62;66.18;100050.84;4886270;28;114164;-86
2021/12/15 03:03:45;;;;;;;19.57;12.93;;;9.10;94.10;;;9.62;65.94;100044.50;4894320;28;113131;-87
2021/12/15 03:06:21;;;;;;;20.47;13.50;;;9.10;94.10;;;9.57;66.06;100045.31;4891219;28;124077;-86
2021/12/15 03:08:59;;;;;;;18.70;12.00;;;9.10;94.10;;;9.55;66.26;100047.53;4878809;28;123925;-87
2021/12/15 03:15:29;;;;;;;20.93;12.30;;;9.00;94.00;;;9.53;66.09;100055.22;4879662;28;114488;-82
2021/12/15 03:18:26;;;;;;;21.20;11.20;;;9.00;94.00;;;9.51;66.27;100052.78;4897821;28;124542;-83
2021/12/15 03:21:04;;;;;;;20.03;11.87;;;9.00;94.00;;;9.53;66.48;100060.75;4883739;28;123828;-86
2021/12/15 03:23:42;;;;;;;17.60;11.87;;;9.00;94.10;;;9.55;66.21;100064.06;4895510;28;114407;-84
2021/12/15 03:26:14;;;;;;;18.20;12.33;;;9.10;94.10;;;9.57;66.20;100067.41;4889325;28;114992;-86
2021/12/15 03:37:23;;;;;;;22.23;11.60;;;9.00;94.00;;;9.56;66.10;100071.25;4882174;28;114713;-85
2021/12/15 03:40:43;;;;;;;19.40;11.70;;;9.00;94.00;;;9.54;65.94;100067.94;4891668;28;123806;-86
2021/12/15 03:43:15;;;;;;;16.40;10.80;;;9.00;94.00;;;9.53;65.71;100063.50;4893417;28;123849;-86
2021/12/15 03:45:51;;;;;;;18.37;11.50;;;9.00;94.00;;;9.57;65.87;100061.88;4860774;28;114828;-86
2021/12/15 03:48:23;;;;;;;18.13;11.00;;;9.00;94.00;;;9.58;65.87;100074.56;4875174;28;114135;-86
2021/12/15 03:50:53;;;;;;;20.43;12.30;;;9.10;94.30;;;9.59;65.89;100072.63;4887446;28;123235;-87
2021/12/15 03:53:19;;;;;;;21.40;12.40;;;9.00;94.00;;;9.61;66.33;100079.53;4867198;28;123559;-87
2021/12/15 03:55:47;;;;;;;19.10;11.70;;;9.10;94.00;;;9.64;66.00;100067.09;4889364;28;113410;-86
2021/12/15 03:58:16;;;;;;;19.23;11.93;;;9.10;94.00;;;9.64;65.62;100062.41;4891138;28;114067;-86
2021/12/15 04:01:02;;;;;;;17.60;10.97;;;9.50;94.10;;;9.65;65.74;100075.13;4880074;28;124095;-87
2021/12/15 04:03:51;;;;;;;16.50;10.83;;;9.10;93.90;;;9.65;65.83;100069.59;4872594;28;123640;-85
2021/12/15 04:06:41;;;;;;;19.23;12.37;;;9.10;93.90;;;9.64;65.64;100078.97;4887192;28;113560;-86
2021/12/15 04:09:12;;;;;;;19.40;11.43;;;9.10;93.90;;;9.62;65.89;100080.38;4873250;28;114213;-87
2021/12/15 04:11:39;;;;;;;24.80;13.10;;;9.10;93.90;;;9.61;65.70;100082.28;4891151;28;123049;-87
2021/12/15 04:14:11;;;;;;;19.27;13.37;;;9.10;93.90;;;9.62;66.09;100078.44;4889764;28;123833;-87
2021/12/15 04:16:46;;;;;;;19.10;12.70;;;9.10;93.90;;;9.64;65.95;100078.16;4887906;28;114807;-86
2021/12/15 04:19:20;;;;;;;21.23;13.60;;;9.10;93.90;;;9.65;65.50;100077.88;4880438;28;115043;-85
2021/12/15 04:21:49;;;;;;;22.07;12.90;;;9.10;93.90;;;9.65;65.65;100072.38;4892465;28;123185;-86
2021/12/15 04:24:18;;;;;;;22.93;14.77;;;9.20;93.90;;;9.62;65.73;100075.69;4891104;28;123535;-86
2021/12/15 04:26:47;;;;;;;19.50;11.73;;;9.10;93.90;;;9.58;65.83;100066.28;4885643;28;114323;-86
2021/12/15 04:29:33;;;;;;;18.93;11.87;;;9.10;93.90;;;9.60;65.70;100069.59;4872812;28;114303;-87
2021/12/15 04:32:09;;;;;;;21.10;10.67;;;9.10;93.90;;;9.62;65.96;100075.69;4879161;28;124973;-87
2021/12/15 04:34:55;;;;;;;19.50;12.43;;;9.10;93.90;;;9.60;65.80;100077.88;4869039;28;124252;-85
2021/12/15 04:37:23;;;;;;;16.90;10.83;;;9.10;93.90;;;9.58;66.03;100082.00;4878648;28;114574;-85
2021/12/15 04:39:50;;;;;;;16.93;10.80;;;9.00;93.80;;;9.58;65.80;100085.59;4887813;28;114105;-86
2021/12/15 04:42:19;;;;;;;18.63;11.77;;;9.00;93.80;;;9.60;65.77;100083.41;4888164;28;124222;-86
2021/12/15 04:44:47;;;;;;;17.83;10.77;;;9.10;94.20;;;9.62;65.76;100086.72;4885087;28;123012;-86
2021/12/15 04:47:15;;;;;;;15.40;10.80;;;9.10;93.90;;;9.63;65.54;100087.53;4890937;28;114324;-87
2021/12/15 04:49:50;;;;;;;14.13;8.97;;;9.10;93.80;;;9.64;65.66;100089.19;4875665;28;114312;-86
2021/12/15 04:52:22;;;;;;;14.73;9.83;;;9.10;93.80;;;9.63;65.42;100093.06;4874461;28;123999;-86
2021/12/15 04:54:50;;;;;;;15.10;10.00;;;9.10;93.80;;;9.63;65.27;100082.84;4891563;28;124294;-86
2021/12/15 04:57:19;;;;;;;15.70;9.40;;;9.10;93.70;;;9.64;65.15;100087.25;4894328;28;114804;-86
2021/12/15 04:59:49;;;;;;;15.60;9.50;;;9.10;93.70;;;9.64;65.37;100084.50;4863238;28;97531;-85
2021/12/15 05:02:19;;;;;;;16.07;9.93;;;9.20;93.70;;;9.67;65.19;100089.47;4893916;28;123935;-85
2021/12/15 05:04:48;;;;;;;14.77;9.07;;;9.10;93.60;;;9.65;65.23;100088.09;4893267;28;124099;-86
2021/12/15 05:07:17;;;;;;;13.23;8.93;;;9.10;93.60;;;9.65;65.15;100085.34;4898279;28;114278;-86
2021/12/15 05:09:49;;;;;;;14.60;8.20;;;9.10;93.50;;;9.65;65.08;100080.66;4877265;28;114061;-86
2021/12/15 05:12:19;;;;;;;12.80;8.20;;;9.10;93.50;;;9.67;64.84;100092.25;4881807;28;124272;-85
2021/12/15 05:14:46;;;;;;;12.13;8.37;;;9.10;93.50;;;9.68;64.89;100093.88;4880579;28;122944;-84
2021/12/15 05:17:32;;;;;;;13.70;8.40;;;9.10;93.40;;;9.71;64.86;100087.81;4884052;28;112916;-86
2021/12/15 05:20:03;;;;;;;11.83;8.17;;;9.10;93.40;;;9.70;65.02;100091.69;4884160;28;113547;-87
2021/12/15 05:22:48;;;;;;;9.50;7.10;;;9.20;93.40;;;9.71;64.69;100089.75;4896389;28;123279;-87
2021/12/15 05:25:16;;;;;;;13.63;8.13;;;9.10;93.30;;;9.68;64.44;100093.88;4897998;28;124014;-86
2021/12/15 05:27:45;;;;;;;12.43;8.13;;;9.10;93.20;;;9.67;64.21;100095.00;4883725;28;114954;-86
2021/12/15 05:30:17;;;;;;;10.83;6.57;;;9.20;93.20;;;9.68;64.22;100090.31;4880254;28;113348;-86
2021/12/15 05:32:46;;;;;;;10.03;6.37;;;9.10;93.10;;;9.69;64.18;100091.94;4875065;28;124204;-86
2021/12/15 05:35:20;;;;;;;10.63;6.70;;;9.20;93.10;;;9.70;64.16;100093.63;4877525;28;123413;-86
2021/12/15 05:38:25;;;;;;;7.90;6.00;;;9.10;93.00;;;9.72;63.88;100096.91;4883750;28;114122;-86
2021/12/15 05:40:53;;;;;;;8.00;5.70;;;9.20;93.00;;;9.72;64.05;100099.69;4880206;28;113920;-86
2021/12/15 05:43:57;;;;;;;7.70;5.70;;;9.20;92.90;;;9.71;63.43;100104.38;4890386;28;124100;-86
2021/12/15 05:46:26;;;;;;;8.50;5.00;;;9.20;92.80;;;9.69;63.41;100112.09;4881904;28;123793;-86
2021/12/15 05:48:54;;;;;;;10.03;5.87;;;9.20;93.00;;;9.69;63.40;100101.06;4879701;28;114817;-86
2021/12/15 05:51:22;;;;;;;9.17;5.37;;;9.10;92.60;;;9.70;63.30;100113.78;4893025;28;114043;-85
2021/12/15 05:53:49;;;;;;;8.43;5.53;;;9.10;92.60;;;9.71;63.37;100118.16;4883213;28;124527;-87
2021/12/15 05:56:18;;;;;;;6.77;4.50;;;9.20;92.60;;;9.71;63.36;100123.69;4892659;28;122922;-87
2021/12/15 05:58:46;;;;;;;6.30;4.63;;;9.20;92.50;;;9.73;62.95;100120.66;4889156;28;114612;-86
2021/12/15 06:01:14;;;;;;;6.80;5.00;;;9.20;92.40;;;9.73;62.95;100121.50;4887863;28;114930;-88
2021/12/15 06:03:41;;;;;;;7.70;5.53;;;9.20;92.40;;;9.74;62.80;100127.84;4895355;28;124517;-85
2021/12/15 06:06:11;;;;;;;7.33;5.13;;;9.20;92.30;;;9.77;62.85;100120.94;4894487;28;123970;-86
2021/12/15 06:08:39;;;;;;;9.30;6.17;;;9.20;92.30;;;9.76;62.68;100124.81;4894001;28;114543;-86
2021/12/15 06:11:05;;;;;;;8.00;5.50;;;9.20;92.30;;;9.78;62.58;100131.72;4892213;28;113142;-87
2021/12/15 06:13:35;;;;;;;6.10;4.90;;;9.20;92.20;;;9.80;62.72;100135.00;4894674;28;123843;-88
2021/12/15 06:16:05;;;;;;;7.17;5.70;;;9.20;92.20;;;9.80;62.34;100134.19;4892465;28;123724;-88
2021/12/15 06:18:33;;;;;;;6.33;5.30;;;9.20;92.10;;;9.81;62.72;100138.63;4877623;28;113657;-88
2021/12/15 06:20:59;;;;;;;6.33;4.80;;;9.20;92.10;;;9.81;62.62;100133.94;4878453;28;113289;-85
2021/12/15 06:23:47;;;;;;;8.60;5.37;;;9.20;92.10;;;9.82;62.40;100129.22;4888729;28;124076;-86
2021/12/15 06:26:18;;;;;;;8.73;5.93;;;9.30;92.10;;;9.80;62.86;100129.50;4875133;28;123006;-84
2021/12/15 06:28:46;;;;;;;12.00;6.07;;;9.20;92.00;;;9.81;62.32;100130.34;4862586;28;112441;-87
2021/12/15 06:31:16;;;;;;;6.83;4.40;;;9.20;92.00;;;9.83;62.48;100137.25;4873090;28;113524;-87
2021/12/15 06:33:46;;;;;;;8.00;5.13;;;9.20;92.10;;;9.88;62.89;100133.63;4873060;28;123053;-85
2021/12/15 06:36:20;;;;;;;9.10;5.70;;;9.30;92.40;;;9.94;63.29;100136.16;4888128;28;124107;-86
2021/12/15 06:38:51;;;;;;;7.57;5.03;;;9.30;92.60;;;9.99;63.37;100137.25;4867110;28;114384;-86
2021/12/15 06:41:18;;;;;;;10.23;6.47;;;9.30;92.70;;;9.98;62.82;100143.88;4887734;28;113893;-85
2021/12/15 06:43:50;;;;;;;9.80;6.57;;;9.30;92.50;;;9.95;62.93;100146.06;4887590;28;123203;-88
2021/12/15 07:00:12;;;;;;;10.40;6.53;;;9.30;92.10;;;9.87;62.32;100154.91;4844356;28;114849;-87
2021/12/15 07:03:00;;;;;;;13.50;9.03;;;9.30;92.00;;;9.86;62.13;100157.91;4868879;28;113957;-88
2021/12/15 07:05:30;;;;;;;11.20;7.47;;;9.30;91.90;;;9.83;62.29;100166.75;4858704;28;123700;-87
2021/12/15 07:07:58;;;;;;;12.40;8.60;;;9.30;91.90;;;9.84;62.57;100168.44;4853577;28;124068;-87
2021/12/15 07:10:32;;;;;;;11.20;7.27;;;9.30;91.90;;;9.83;62.21;100170.38;4855877;28;114158;-87
2021/12/15 07:13:00;;;;;;;10.13;6.80;;;9.50;92.00;;;9.82;62.31;100170.63;4870045;28;113362;-85
2021/12/15 07:15:28;;;;;;;10.20;7.67;;;9.30;91.90;;;9.83;62.12;100169.53;4863990;28;124393;-87
2021/12/15 07:18:02;;;;;;;12.80;7.60;;;9.30;91.90;;;9.84;62.26;100187.75;4869008;28;124330;-85
2021/12/15 07:20:49;;;;;;;14.87;8.10;;;9.30;91.90;;;9.84;62.27;100176.72;4870431;28;114691;-86
2021/12/15 07:23:22;;;;;;;12.20;8.13;;;9.30;91.80;;;9.84;62.18;100193.28;4874877;28;113769;-87
2021/12/15 07:25:51;;;;;;;12.33;8.10;;;9.30;91.80;;;9.80;62.05;100186.63;4873005;28;124134;-87
2021/12/15 07:28:23;;;;;;;11.60;8.63;;;9.30;91.80;;;9.79;62.15;100194.09;4862664;28;124029;-88
2021/12/15 07:30:50;;;;;;;12.80;8.83;;;9.40;91.80;;;9.78;62.21;100197.97;4869879;28;114271;-87
2021/12/15 07:33:16;;;;;;;12.50;8.00;;;9.20;91.70;;;9.77;62.16;100207.31;4867936;28;113871;-87
2021/12/15 07:35:43;;;;;;;12.73;9.10;;;9.20;91.70;;;9.76;61.84;100204.84;4871416;28;124563;-86
2021/12/15 07:38:10;;;;;;;13.40;9.70;;;9.20;91.70;;;9.73;61.90;100204.28;4868138;28;123844;-85
2021/12/15 07:40:40;;;;;;;12.07;8.60;;;9.20;91.70;;;9.73;62.01;100207.06;4871668;28;114452;-86
2021/12/15 07:43:23;;;;;;;15.10;9.03;;;9.20;91.70;;;9.73;62.05;100209.81;4855429;28;114044;-87
2021/12/15 07:46:04;;;;;;;13.40;8.20;;;9.20;91.70;;;9.74;62.11;100216.97;4871598;28;123349;-86
2021/12/15 07:48:39;;;;;;;13.53;8.83;;;9.20;91.70;;;9.73;62.20;100214.50;4869756;28;124461;-87
2021/12/15 07:51:08;;;;;;;13.33;9.00;;;9.20;91.70;;;9.73;61.89;100220.03;4871571;28;113562;-86
2021/12/15 07:53:37;;;;;;;10.83;7.30;;;9.20;91.70;;;9.73;61.89;100209.00;4872867;28;113909;-85
2021/12/15 07:56:15;;;;;;;11.90;8.23;;;9.20;91.70;;;9.75;62.02;100217.81;4869881;28;123265;-85
2021/12/15 07:58:42;;;;;;;17.60;9.43;;;9.20;91.70;;;9.71;61.92;100217.53;4864079;28;124089;-86
2021/12/15 08:01:28;;;;;;;13.10;8.67;;;9.20;91.60;;;9.71;61.99;100216.69;4868614;28;114159;-87
2021/12/15 08:03:56;;;;;;;12.67;8.97;;;9.20;91.70;;;9.68;62.01;100220.84;4855038;28;113673;-85
2021/12/15 08:06:26;;;;;;;11.23;7.60;;;9.10;91.60;;;9.67;61.96;100230.22;4854828;28;124189;-87
2021/12/15 08:09:13;;;;;;;10.47;8.00;;;9.10;91.60;;;9.68;61.88;100233.81;4853749;28;123893;-87
2021/12/15 08:11:40;;;;;;;13.10;8.30;;;9.10;91.60;;;9.67;61.99;100233.00;4812157;29;115156;-84
2021/12/15 08:14:08;;;;;;;9.03;5.53;;;9.10;91.60;;;9.67;62.03;100232.13;4813766;29;114130;-86
2021/12/15 08:16:35;;;;;;;9.30;6.70;;;9.20;91.70;;;9.67;62.00;100233.00;4811707;29;123780;-87
2021/12/15 08:19:02;;;;;;;10.50;7.10;;;9.10;91.50;;;9.65;61.46;100232.41;4812294;29;123666;-86
2021/12/15 08:21:29;;;;;;;9.83;6.37;;;9.10;91.50;;;9.66;61.74;100231.31;4814449;29;114211;-87
2021/12/15 08:23:57;;;;;;;8.17;6.07;;;9.10;91.50;;;9.67;61.67;100235.75;4819148;29;114394;-85
2021/12/15 08:26:26;;;;;;;10.00;6.50;;;7.80;90.90;;;9.69;61.55;100236.28;4812327;29;124141;-86
2021/12/15 08:28:53;;;;;;;7.90;5.93;;;9.10;91.40;;;9.71;61.59;100228.56;4815412;29;123102;-86
2021/12/15 08:31:20;;;;;;;10.57;6.23;;;9.10;91.40;;;9.73;61.33;100236.59;4804414;29;114730;-86
2021/12/15 08:33:47;;;;;;;7.80;5.57;;;9.20;91.40;;;9.73;61.61;100242.09;4815645;29;115017;-87
2021/12/15 08:36:15;;;;;;;8.80;5.63;;;9.20;91.40;;;9.76;61.52;100243.50;4814449;29;124394;-86
2021/12/15 08:38:49;;;;;;;10.60;6.70;;;9.20;91.40;;;9.78;61.31;100239.38;4813297;29;123838;-86
2021/12/15 08:41:29;;;;;;;11.00;6.63;;;9.20;91.40;;;9.79;61.27;100245.72;4815129;29;114733;-86
2021/12/15 08:43:57;;;;;;;9.27;6.60;;;9.20;91.30;;;9.78;61.33;100249.56;4801530;29;113213;-87
2021/12/15 08:46:38;;;;;;;8.00;6.20;;;9.20;91.30;;;9.80;61.17;100253.69;4782917;29;123221;-88
2021/12/15 08:49:09;;;;;;;17.83;7.10;;;9.20;91.20;;;9.76;61.21;100247.09;4850250;28;123859;-88
2021/12/15 08:51:36;;;;;;;29.00;9.20;;;9.20;91.20;;;9.77;60.88;100258.94;4867044;28;113120;-84
2021/12/15 08:54:08;;;;;;;32.03;9.90;;;9.20;91.10;;;9.76;60.78;100260.88;4851204;28;113622;-87
2021/12/15 08:56:37;;;;;;;26.10;8.90;;;9.20;91.00;;;9.74;60.84;100261.13;4875502;28;123277;-87
2021/12/15 08:59:05;;;;;;;9.63;6.53;;;9.20;91.10;;;9.75;60.70;100253.69;4875338;28;124398;-86
2021/12/15 09:01:32;;;;;;;14.00;7.30;;;9.20;91.00;;;9.72;60.26;100252.31;4854605;28;113408;-89
2021/12/15 09:04:00;;;;;;;13.93;6.67;;;9.20;90.90;;;9.71;60.46;100253.41;4891048;28;114016;-87
2021/12/15 09:06:27;;;;;;;8.97;4.67;;;9.20;90.90;;;9.70;60.43;100249.00;4869138;28;123909;-87
2021/12/15 09:08:53;;;;;;;7.90;5.30;;;9.20;90.80;;;9.69;60.43;100258.34;4893697;28;123847;-87
2021/12/15 09:11:24;;;;;;;6.83;4.60;;;9.10;90.80;;;9.71;60.27;100252.59;4893571;28;114316;-88
2021/12/15 09:13:55;;;;;;;5.40;4.70;;;9.10;90.70;;;9.70;60.03;100249.00;4880780;28;113992;-81
2021/12/15 09:16:26;;;;;;;5.23;4.40;;;9.10;90.70;;;9.68;60.13;100256.72;4876626;28;126101;-80
2021/12/15 09:19:13;;;;;;;8.10;5.30;;;9.20;90.70;;;9.67;59.94;100249.53;4866853;28;123863;-79
2021/12/15 09:21:44;;;;;;;5.80;4.90;;;9.10;90.60;;;9.62;60.34;100252.28;4888218;28;115530;-80
2021/12/15 09:24:14;;;;;;;14.57;7.17;;;9.10;90.50;;;9.60;60.17;100260.00;4897005;28;114882;-81
2021/12/15 09:26:41;;;;;;;12.47;5.60;;;9.10;90.60;;;9.60;60.21;100259.16;4870377;28;125274;-83
2021/12/15 09:29:08;;;;;;;20.40;8.00;;;9.10;90.60;;;9.61;60.11;100267.16;4869412;28;123769;-84
2021/12/15 09:31:36;;;;;;;19.83;6.83;;;9.10;90.50;;;9.61;60.25;100256.13;4889731;28;114214;-84
2021/12/15 09:34:06;;;;;;;10.67;5.67;;;9.10;90.60;;;9.63;60.08;100273.25;4886278;28;113257;-86
2021/12/15 09:36:34;;;;;;;11.07;5.30;;;9.10;90.50;;;9.65;60.09;100267.47;4882239;28;124716;-88
2021/12/15 09:39:10;;;;;;;12.50;5.20;;;9.10;90.60;;;9.68;60.25;100273.28;4889091;28;123604;-87
2021/12/15 09:41:38;;;;;;;9.60;5.83;;;9.10;90.50;;;9.67;59.98;100282.66;4858485;28;114109;-86
2021/12/15 09:44:11;;;;;;;7.87;4.83;;;9.10;90.40;;;9.68;59.91;100276.03;4880933;28;114838;-86
2021/12/15 10:02:02;;;;;;;6.53;4.50;;;9.10;90.40;;;9.69;59.68;100269.41;4861892;28;124823;-87
2021/12/15 10:06:34;;;;;;;4.20;3.30;;;9.10;90.30;;;9.71;59.61;100278.25;4836913;29;114286;-86
2021/12/15 10:11:55;;;;;;;5.93;4.23;;;9.20;90.20;;;9.71;59.54;100278.25;4840035;29;124293;-85
2021/12/15 10:17:27;;;;;;;5.80;4.20;;;9.10;90.10;;;9.67;58.96;100274.38;4828973;29;115205;-87
2021/12/15 10:20:03;;;;;;;4.60;3.90;;;9.10;90.00;;;9.64;59.42;100269.38;4827202;29;124555;-86
2021/12/15 10:22:46;;;;;;;5.00;3.33;;;10.50;90.10;;;9.65;59.20;100262.78;4836265;29;123649;-88
2021/12/15 10:25:21;;;;;;;5.27;4.10;;;9.10;90.00;;;9.68;59.25;100262.22;4836373;29;114446;-88
2021/12/15 10:28:11;;;;;;;5.80;4.03;;;9.10;90.00;;;9.71;59.36;100264.44;4819244;29;113160;-88
2021/12/15 10:30:49;;;;;;;9.23;4.53;;;9.20;90.00;;;9.73;59.26;100264.19;4813989;29;124925;-78
2021/12/15 10:33:32;;;;;;;8.07;4.83;;;9.20;90.00;;;9.76;59.91;100257.28;4824465;29;124477;-78
2021/12/15 10:36:10;;;;;;;4.10;3.30;;;9.10;90.30;;;9.80;59.97;100258.41;4820542;29;113279;-78
2021/12/15 10:38:46;;;;;;;4.50;3.73;;;9.20;90.40;;;9.87;60.22;100259.81;4857072;28;115442;-80
2021/12/15 10:41:17;;;;;;;4.33;3.50;;;9.20;90.70;;;9.96;60.46;100265.63;4858065;28;124528;-79
2021/12/15 10:43:56;;;;;;;5.87;4.57;;;9.30;90.90;;;10.04;59.71;100259.56;4870245;28;123580;-83
2021/12/15 10:46:24;;;;;;;6.93;4.47;;;9.40;90.80;;;10.09;60.50;100262.34;4868866;28;114733;-79
2021/12/15 10:49:08;;;;;;;4.63;4.13;;;9.40;90.80;;;10.21;59.99;100261.25;4861286;28;113876;-79
2021/12/15 10:52:04;;;;;;;4.67;3.57;;;9.50;90.90;;;10.30;60.17;100254.13;4837594;28;123786;-78
2021/12/15 10:54:40;;;;;;;6.07;4.70;;;9.60;90.90;;;10.33;59.84;100251.63;4871784;28;124772;-76
2021/12/15 10:57:21;;;;;;;5.50;4.00;;;9.60;90.70;;;10.36;59.36;100256.59;4832254;28;113708;-88
2021/12/15 10:59:53;;;;;;;9.03;6.00;;;9.60;90.70;;;10.38;58.90;100246.09;4873790;28;114049;-89
2021/12/15 11:02:25;;;;;;;6.63;4.73;;;9.70;90.50;;;10.35;58.83;100249.44;4857281;28;123445;-86
2021/12/15 11:05:08;;;;;;;5.63;4.60;;;9.70;90.30;;;10.34;59.00;100252.44;4852926;28;122409;-87
2021/12/15 11:07:38;;;;;;;5.67;4.50;;;9.70;90.20;;;10.32;58.63;100257.44;4852393;28;115593;-88
2021/12/15 11:10:11;;;;;;;5.57;4.00;;;9.70;90.10;;;10.28;58.65;100246.09;4866550;28;114900;-87
2021/12/15 11:12:46;;;;;;;7.60;5.10;;;9.70;90.00;;;10.26;58.18;100244.69;4869922;28;123998;-88
2021/12/15 11:15:40;;;;;;;6.43;4.40;;;9.70;89.50;;;10.25;58.12;100243.03;4852925;28;123855;-85
2021/12/15 11:18:28;;;;;;;7.30;4.80;;;9.60;89.50;;;10.23;58.13;100242.47;4855576;28;114127;-88
2021/12/15 11:21:00;;;;;;;6.63;4.50;;;9.70;89.50;;;10.23;57.88;100245.22;4867692;28;114485;-89
2021/12/15 11:23:33;;;;;;;5.40;4.63;;;9.60;89.10;;;10.20;58.05;100243.03;4867745;28;124867;-89
2021/12/15 11:26:13;;;;;;;6.23;4.67;;;9.60;89.00;;;10.17;57.61;100242.47;4861518;28;122684;-87
2021/12/15 11:28:45;;;;;;;5.17;4.50;;;9.60;89.00;;;10.14;58.03;100231.16;4854625;28;114497;-86
2021/12/15 11:31:17;;;;;;;6.53;4.63;;;9.60;88.90;;;10.10;58.21;100241.06;4859944;28;114068;-88
2021/12/15 11:33:48;;;;;;;6.50;4.90;;;9.70;89.00;;;10.07;57.82;100236.91;4866648;28;124138;-87
2021/12/15 11:36:19;;;;;;;6.27;4.97;;;9.50;88.60;;;10.04;57.97;100234.72;4868151;28;122948;-87
2021/12/15 11:38:57;;;;;;;5.60;4.60;;;9.50;88.70;;;10.04;58.03;100231.94;4866670;28;114657;-88